sensor_id;sensor_type;location;lat;lon;timestamp;P1;durP1;ratioP1;P2;durP2;ratioP2
54406;SDS011;40313;50.308;30.374;2023-03-13T00:01:52;1.90;;;0.80;;
54406;SDS011;40313;50.308;30.374;2023-03-13T00:04:18;2.40;;;1.65;;
54406;SDS011;40313;50.308;30.374;2023-03-13T00:06:45;5.10;;;1.90;;
54406;SDS011;40313;50.308;30.374;2023-03-13T00:09:13;2.50;;;1.40;;
54406;SDS011;40313;50.308;30.374;2023-03-13T00:14:09;1.90;;;1.50;;
54406;SDS011;40313;50.308;30.374;2023-03-13T00:19:03;3.10;;;2.10;;
54406;SDS011;40313;50.308;30.374;2023-03-13T00:21:31;4.50;;;1.90;;
54406;SDS011;40313;50.308;30.374;2023-03-13T00:23:58;4.80;;;1.65;;
54406;SDS011;40313;50.308;30.374;2023-03-13T00:26:25;4.70;;;2.20;;
54406;SDS011;40313;50.308;30.374;2023-03-13T00:55:52;2.08;;;1.30;;
54406;SDS011;40313;50.308;30.374;2023-03-13T00:58:21;9.88;;;2.22;;
54406;SDS011;40313;50.308;30.374;2023-03-13T01:00:48;2.92;;;2.15;;
54406;SDS011;40313;50.308;30.374;2023-03-13T01:03:14;2.75;;;1.92;;
54406;SDS011;40313;50.308;30.374;2023-03-13T01:05:42;4.90;;;3.15;;
54406;SDS011;40313;50.308;30.374;2023-03-13T01:08:09;3.58;;;3.25;;
54406;SDS011;40313;50.308;30.374;2023-03-13T01:10:36;7.38;;;4.07;;
54406;SDS011;40313;50.308;30.374;2023-03-13T01:13:02;5.50;;;4.35;;
54406;SDS011;40313;50.308;30.374;2023-03-13T01:15:33;5.88;;;2.90;;
54406;SDS011;40313;50.308;30.374;2023-03-13T01:17:59;8.60;;;3.45;;
54406;SDS011;40313;50.308;30.374;2023-03-13T01:20:27;3.97;;;3.35;;
54406;SDS011;40313;50.308;30.374;2023-03-13T01:22:55;4.53;;;3.42;;
54406;SDS011;40313;50.308;30.374;2023-03-13T01:25:22;9.75;;;2.67;;
54406;SDS011;40313;50.308;30.374;2023-03-13T01:27:48;3.63;;;2.72;;
54406;SDS011;40313;50.308;30.374;2023-03-13T01:30:15;3.77;;;1.77;;
54406;SDS011;40313;50.308;30.374;2023-03-13T01:32:42;3.45;;;1.85;;
54406;SDS011;40313;50.308;30.374;2023-03-13T01:35:09;5.00;;;2.00;;
54406;SDS011;40313;50.308;30.374;2023-03-13T01:37:36;2.90;;;2.50;;
54406;SDS011;40313;50.308;30.374;2023-03-13T01:40:04;3.70;;;1.80;;
54406;SDS011;40313;50.308;30.374;2023-03-13T01:48:30;1.10;;;1.00;;
54406;SDS011;40313;50.308;30.374;2023-03-13T01:51:02;1.20;;;0.95;;
54406;SDS011;40313;50.308;30.374;2023-03-13T01:53:33;1.90;;;1.10;;
54406;SDS011;40313;50.308;30.374;2023-03-13T02:15:46;1.13;;;0.68;;
54406;SDS011;40313;50.308;30.374;2023-03-13T02:18:13;3.63;;;0.60;;
54406;SDS011;40313;50.308;30.374;2023-03-13T02:20:40;1.05;;;0.50;;
54406;SDS011;40313;50.308;30.374;2023-03-13T02:23:09;9.10;;;1.00;;
54406;SDS011;40313;50.308;30.374;2023-03-13T02:25:45;1.60;;;0.80;;
54406;SDS011;40313;50.308;30.374;2023-03-13T02:28:14;3.40;;;1.15;;
54406;SDS011;40313;50.308;30.374;2023-03-13T02:30:43;4.97;;;1.45;;
54406;SDS011;40313;50.308;30.374;2023-03-13T02:33:12;2.10;;;0.80;;
54406;SDS011;40313;50.308;30.374;2023-03-13T02:40:36;1.60;;;0.90;;
54406;SDS011;40313;50.308;30.374;2023-03-13T02:43:08;2.22;;;1.02;;
54406;SDS011;40313;50.308;30.374;2023-03-13T02:45:37;3.88;;;1.30;;
54406;SDS011;40313;50.308;30.374;2023-03-13T02:48:04;3.42;;;1.33;;
54406;SDS011;40313;50.308;30.374;2023-03-13T02:50:31;4.47;;;1.83;;
54406;SDS011;40313;50.308;30.374;2023-03-13T02:52:59;3.38;;;2.05;;
54406;SDS011;40313;50.308;30.374;2023-03-13T02:55:29;2.75;;;2.45;;
54406;SDS011;40313;50.308;30.374;2023-03-13T02:58:00;3.85;;;2.45;;
54406;SDS011;40313;50.308;30.374;2023-03-13T03:02:54;2.30;;;2.10;;
54406;SDS011;40313;50.308;30.374;2023-03-13T05:19:52;47.95;;;15.85;;
54406;SDS011;40313;50.308;30.374;2023-03-13T05:22:19;34.58;;;14.10;;
54406;SDS011;40313;50.308;30.374;2023-03-13T05:24:45;30.83;;;13.15;;
54406;SDS011;40313;50.308;30.374;2023-03-13T05:27:12;45.63;;;12.30;;
54406;SDS011;40313;50.308;30.374;2023-03-13T05:29:38;45.50;;;14.70;;
54406;SDS011;40313;50.308;30.374;2023-03-13T05:32:05;30.73;;;11.45;;
54406;SDS011;40313;50.308;30.374;2023-03-13T05:34:33;17.10;;;7.53;;
54406;SDS011;40313;50.308;30.374;2023-03-13T05:36:59;35.13;;;11.73;;
54406;SDS011;40313;50.308;30.374;2023-03-13T05:46:45;7.28;;;6.53;;
54406;SDS011;40313;50.308;30.374;2023-03-13T05:49:11;13.43;;;8.65;;
54406;SDS011;40313;50.308;30.374;2023-03-13T05:51:39;24.20;;;9.80;;
54406;SDS011;40313;50.308;30.374;2023-03-13T05:54:06;15.35;;;8.80;;
54406;SDS011;40313;50.308;30.374;2023-03-13T05:56:32;22.55;;;10.00;;
54406;SDS011;40313;50.308;30.374;2023-03-13T05:58:59;19.90;;;10.10;;
54406;SDS011;40313;50.308;30.374;2023-03-13T06:01:25;18.43;;;10.23;;
54406;SDS011;40313;50.308;30.374;2023-03-13T06:03:52;15.00;;;9.80;;
54406;SDS011;40313;50.308;30.374;2023-03-13T06:06:18;10.75;;;9.00;;
54406;SDS011;40313;50.308;30.374;2023-03-13T06:08:46;8.95;;;8.10;;
54406;SDS011;40313;50.308;30.374;2023-03-13T06:11:13;11.77;;;8.05;;
54406;SDS011;40313;50.308;30.374;2023-03-13T06:13:40;17.10;;;8.57;;
54406;SDS011;40313;50.308;30.374;2023-03-13T06:16:06;10.67;;;9.10;;
54406;SDS011;40313;50.308;30.374;2023-03-13T06:18:33;7.85;;;6.95;;
54406;SDS011;40313;50.308;30.374;2023-03-13T06:21:00;10.10;;;6.50;;
54406;SDS011;40313;50.308;30.374;2023-03-13T06:23:27;9.30;;;6.45;;
54406;SDS011;40313;50.308;30.374;2023-03-13T06:25:55;11.20;;;6.15;;
54406;SDS011;40313;50.308;30.374;2023-03-13T06:28:22;11.80;;;5.53;;
54406;SDS011;40313;50.308;30.374;2023-03-13T06:30:49;6.95;;;6.38;;
54406;SDS011;40313;50.308;30.374;2023-03-13T06:33:15;13.80;;;5.93;;
54406;SDS011;40313;50.308;30.374;2023-03-13T06:35:42;6.03;;;5.45;;
54406;SDS011;40313;50.308;30.374;2023-03-13T06:38:09;6.68;;;6.05;;
54406;SDS011;40313;50.308;30.374;2023-03-13T06:40:36;10.05;;;5.60;;
54406;SDS011;40313;50.308;30.374;2023-03-13T06:43:04;9.77;;;6.22;;
54406;SDS011;40313;50.308;30.374;2023-03-13T06:45:31;7.38;;;5.35;;
54406;SDS011;40313;50.308;30.374;2023-03-13T06:47:59;6.57;;;6.15;;
54406;SDS011;40313;50.308;30.374;2023-03-13T06:50:26;8.52;;;6.32;;
54406;SDS011;40313;50.308;30.374;2023-03-13T06:52:52;6.18;;;5.57;;
54406;SDS011;40313;50.308;30.374;2023-03-13T06:55:19;11.45;;;6.15;;
54406;SDS011;40313;50.308;30.374;2023-03-13T06:57:48;14.13;;;6.57;;
54406;SDS011;40313;50.308;30.374;2023-03-13T07:00:17;6.40;;;5.80;;
54406;SDS011;40313;50.308;30.374;2023-03-13T07:02:44;6.88;;;6.25;;
54406;SDS011;40313;50.308;30.374;2023-03-13T07:05:11;6.85;;;5.57;;
54406;SDS011;40313;50.308;30.374;2023-03-13T07:07:38;14.65;;;6.72;;
54406;SDS011;40313;50.308;30.374;2023-03-13T07:10:05;5.38;;;4.80;;
54406;SDS011;40313;50.308;30.374;2023-03-13T07:12:33;7.50;;;6.03;;
54406;SDS011;40313;50.308;30.374;2023-03-13T07:14:59;8.90;;;5.20;;
54406;SDS011;40313;50.308;30.374;2023-03-13T07:17:27;10.70;;;5.55;;
54406;SDS011;40313;50.308;30.374;2023-03-13T07:19:54;5.80;;;4.10;;
54406;SDS011;40313;50.308;30.374;2023-03-13T07:22:20;6.40;;;5.80;;
54406;SDS011;40313;50.308;30.374;2023-03-13T07:37:01;10.70;;;4.90;;
54406;SDS011;40313;50.308;30.374;2023-03-13T07:41:54;6.80;;;4.80;;
54406;SDS011;40313;50.308;30.374;2023-03-13T07:46:47;9.10;;;5.60;;
54406;SDS011;40313;50.308;30.374;2023-03-13T07:49:14;8.20;;;4.10;;
54406;SDS011;40313;50.308;30.374;2023-03-13T07:51:42;13.85;;;5.70;;
54406;SDS011;40313;50.308;30.374;2023-03-13T07:54:11;7.45;;;4.20;;
54406;SDS011;40313;50.308;30.374;2023-03-13T07:56:38;13.50;;;5.10;;
54406;SDS011;40313;50.308;30.374;2023-03-13T07:59:05;6.15;;;4.05;;
54406;SDS011;40313;50.308;30.374;2023-03-13T08:01:31;15.48;;;5.65;;
54406;SDS011;40313;50.308;30.374;2023-03-13T08:03:58;5.10;;;4.70;;
54406;SDS011;40313;50.308;30.374;2023-03-13T08:06:26;5.97;;;4.40;;
54406;SDS011;40313;50.308;30.374;2023-03-13T08:08:57;4.57;;;4.18;;
54406;SDS011;40313;50.308;30.374;2023-03-13T08:11:24;11.63;;;4.80;;
54406;SDS011;40313;50.308;30.374;2023-03-13T08:13:52;5.70;;;4.43;;
54406;SDS011;40313;50.308;30.374;2023-03-13T08:16:20;9.27;;;4.60;;
54406;SDS011;40313;50.308;30.374;2023-03-13T08:18:49;7.90;;;4.85;;
54406;SDS011;40313;50.308;30.374;2023-03-13T08:21:18;7.15;;;3.72;;
54406;SDS011;40313;50.308;30.374;2023-03-13T08:23:46;8.05;;;3.80;;
54406;SDS011;40313;50.308;30.374;2023-03-13T08:26:15;9.45;;;4.90;;
54406;SDS011;40313;50.308;30.374;2023-03-13T08:28:43;8.18;;;4.32;;
54406;SDS011;40313;50.308;30.374;2023-03-13T08:31:11;4.30;;;4.00;;
54406;SDS011;40313;50.308;30.374;2023-03-13T08:33:39;5.82;;;4.20;;
54406;SDS011;40313;50.308;30.374;2023-03-13T08:38:38;8.05;;;3.80;;
54406;SDS011;40313;50.308;30.374;2023-03-13T08:41:06;7.18;;;3.92;;
54406;SDS011;40313;50.308;30.374;2023-03-13T08:43:34;4.30;;;3.50;;
54406;SDS011;40313;50.308;30.374;2023-03-13T10:12:14;6.80;;;3.00;;
54406;SDS011;40313;50.308;30.374;2023-03-13T10:32:14;5.30;;;3.50;;
54406;SDS011;40313;50.308;30.374;2023-03-13T11:17:08;4.20;;;3.75;;
54406;SDS011;40313;50.308;30.374;2023-03-13T12:46:02;5.50;;;3.20;;
54406;SDS011;40313;50.308;30.374;2023-03-13T13:16:57;5.70;;;2.80;;
54406;SDS011;40313;50.308;30.374;2023-03-13T13:52:45;16.75;;;4.45;;
54406;SDS011;40313;50.308;30.374;2023-03-13T14:00:25;3.40;;;3.10;;
54406;SDS011;40313;50.308;30.374;2023-03-13T14:05:20;7.30;;;3.90;;
54406;SDS011;40313;50.308;30.374;2023-03-13T14:07:53;4.70;;;3.60;;
54406;SDS011;40313;50.308;30.374;2023-03-13T14:25:40;7.15;;;4.00;;
54406;SDS011;40313;50.308;30.374;2023-03-13T14:40:32;7.60;;;3.90;;
54406;SDS011;40313;50.308;30.374;2023-03-13T14:45:30;8.57;;;3.55;;
54406;SDS011;40313;50.308;30.374;2023-03-13T14:48:01;6.60;;;4.18;;
54406;SDS011;40313;50.308;30.374;2023-03-13T14:50:35;15.85;;;4.10;;
54406;SDS011;40313;50.308;30.374;2023-03-13T14:53:02;13.32;;;4.65;;
54406;SDS011;40313;50.308;30.374;2023-03-13T14:55:37;14.60;;;4.53;;
54406;SDS011;40313;50.308;30.374;2023-03-13T14:58:05;6.72;;;4.28;;
54406;SDS011;40313;50.308;30.374;2023-03-13T15:00:52;5.20;;;4.80;;
54406;SDS011;40313;50.308;30.374;2023-03-13T15:03:24;12.00;;;4.40;;
54406;SDS011;40313;50.308;30.374;2023-03-13T16:14:44;7.40;;;5.25;;
54406;SDS011;40313;50.308;30.374;2023-03-13T16:19:38;9.20;;;4.70;;
54406;SDS011;40313;50.308;30.374;2023-03-13T16:39:12;11.20;;;4.20;;
54406;SDS011;40313;50.308;30.374;2023-03-13T16:44:06;4.30;;;3.90;;
54406;SDS011;40313;50.308;30.374;2023-03-13T16:49:02;6.30;;;3.30;;
54406;SDS011;40313;50.308;30.374;2023-03-13T16:51:29;3.10;;;2.80;;
54406;SDS011;40313;50.308;30.374;2023-03-13T16:53:56;3.90;;;3.30;;
54406;SDS011;40313;50.308;30.374;2023-03-13T16:56:25;5.90;;;4.50;;
54406;SDS011;40313;50.308;30.374;2023-03-13T17:03:49;3.40;;;3.10;;
54406;SDS011;40313;50.308;30.374;2023-03-13T17:06:17;7.65;;;3.75;;
54406;SDS011;40313;50.308;30.374;2023-03-13T17:26:07;9.30;;;3.65;;
54406;SDS011;40313;50.308;30.374;2023-03-13T17:28:38;5.30;;;3.90;;
54406;SDS011;40313;50.308;30.374;2023-03-13T17:31:06;4.50;;;4.10;;
54406;SDS011;40313;50.308;30.374;2023-03-13T17:33:33;3.75;;;3.45;;
54406;SDS011;40313;50.308;30.374;2023-03-13T17:36:00;3.40;;;3.20;;
54406;SDS011;40313;50.308;30.374;2023-03-13T17:38:26;3.95;;;3.60;;
54406;SDS011;40313;50.308;30.374;2023-03-13T17:40:54;8.00;;;4.10;;
54406;SDS011;40313;50.308;30.374;2023-03-13T17:43:21;4.20;;;3.85;;
54406;SDS011;40313;50.308;30.374;2023-03-13T17:45:47;4.10;;;3.40;;
54406;SDS011;40313;50.308;30.374;2023-03-13T17:48:14;4.20;;;3.80;;
54406;SDS011;40313;50.308;30.374;2023-03-13T17:50:40;7.70;;;4.30;;
54406;SDS011;40313;50.308;30.374;2023-03-13T17:58:01;9.20;;;4.20;;
54406;SDS011;40313;50.308;30.374;2023-03-13T18:00:28;5.20;;;4.80;;
54406;SDS011;40313;50.308;30.374;2023-03-13T18:02:56;4.80;;;3.65;;
54406;SDS011;40313;50.308;30.374;2023-03-13T18:05:23;5.20;;;4.63;;
54406;SDS011;40313;50.308;30.374;2023-03-13T18:07:50;5.57;;;4.85;;
54406;SDS011;40313;50.308;30.374;2023-03-13T18:10:20;9.57;;;5.05;;
54406;SDS011;40313;50.308;30.374;2023-03-13T18:12:48;6.68;;;4.70;;
54406;SDS011;40313;50.308;30.374;2023-03-13T18:15:17;7.40;;;4.00;;
54406;SDS011;40313;50.308;30.374;2023-03-13T18:17:44;6.55;;;4.43;;
54406;SDS011;40313;50.308;30.374;2023-03-13T18:20:15;6.18;;;4.88;;
54406;SDS011;40313;50.308;30.374;2023-03-13T18:22:43;4.60;;;4.25;;
54406;SDS011;40313;50.308;30.374;2023-03-13T18:25:11;5.50;;;5.00;;
54406;SDS011;40313;50.308;30.374;2023-03-13T18:27:38;6.72;;;4.78;;
54406;SDS011;40313;50.308;30.374;2023-03-13T18:30:09;10.93;;;6.18;;
54406;SDS011;40313;50.308;30.374;2023-03-13T18:32:44;4.78;;;4.38;;
54406;SDS011;40313;50.308;30.374;2023-03-13T18:35:11;10.80;;;5.40;;
54406;SDS011;40313;50.308;30.374;2023-03-13T18:37:38;5.47;;;5.07;;
54406;SDS011;40313;50.308;30.374;2023-03-13T18:40:10;4.75;;;4.35;;
54406;SDS011;40313;50.308;30.374;2023-03-13T18:42:41;5.20;;;4.75;;
54406;SDS011;40313;50.308;30.374;2023-03-13T18:45:09;5.35;;;4.85;;
54406;SDS011;40313;50.308;30.374;2023-03-13T18:47:39;10.15;;;5.22;;
54406;SDS011;40313;50.308;30.374;2023-03-13T18:50:10;10.65;;;5.15;;
54406;SDS011;40313;50.308;30.374;2023-03-13T18:52:44;4.80;;;4.20;;
54406;SDS011;40313;50.308;30.374;2023-03-13T18:55:11;8.20;;;5.30;;
54406;SDS011;40313;50.308;30.374;2023-03-13T18:57:37;14.40;;;5.10;;
54406;SDS011;40313;50.308;30.374;2023-03-13T19:02:36;10.55;;;5.10;;
54406;SDS011;40313;50.308;30.374;2023-03-13T19:05:03;8.75;;;4.90;;
54406;SDS011;40313;50.308;30.374;2023-03-13T19:07:31;5.90;;;5.50;;
54406;SDS011;40313;50.308;30.374;2023-03-13T19:09:58;6.35;;;5.35;;
54406;SDS011;40313;50.308;30.374;2023-03-13T19:14:53;6.23;;;5.67;;
54406;SDS011;40313;50.308;30.374;2023-03-13T19:17:21;7.15;;;5.75;;
54406;SDS011;40313;50.308;30.374;2023-03-13T19:19:51;7.70;;;5.80;;
54406;SDS011;40313;50.308;30.374;2023-03-13T19:22:21;10.20;;;6.00;;
54406;SDS011;40313;50.308;30.374;2023-03-13T19:24:49;6.50;;;5.90;;
54406;SDS011;40313;50.308;30.374;2023-03-13T19:27:15;10.95;;;6.50;;
54406;SDS011;40313;50.308;30.374;2023-03-13T19:29:42;6.45;;;5.85;;
54406;SDS011;40313;50.308;30.374;2023-03-13T19:32:11;8.80;;;6.80;;
54406;SDS011;40313;50.308;30.374;2023-03-13T19:34:39;7.35;;;5.65;;
54406;SDS011;40313;50.308;30.374;2023-03-13T20:13:55;10.90;;;6.88;;
54406;SDS011;40313;50.308;30.374;2023-03-13T20:16:23;7.60;;;6.90;;
54406;SDS011;40313;50.308;30.374;2023-03-13T20:18:51;6.70;;;6.15;;
54406;SDS011;40313;50.308;30.374;2023-03-13T20:21:19;6.90;;;6.30;;
54406;SDS011;40313;50.308;30.374;2023-03-13T20:23:47;9.65;;;6.05;;
54406;SDS011;40313;50.308;30.374;2023-03-13T20:28:42;10.80;;;6.00;;
54406;SDS011;40313;50.308;30.374;2023-03-13T20:31:10;7.90;;;5.90;;
54406;SDS011;40313;50.308;30.374;2023-03-13T20:36:05;7.05;;;5.65;;
54406;SDS011;40313;50.308;30.374;2023-03-13T20:38:34;6.65;;;5.80;;
54406;SDS011;40313;50.308;30.374;2023-03-13T20:41:01;7.35;;;5.55;;
54406;SDS011;40313;50.308;30.374;2023-03-13T20:43:27;6.40;;;5.70;;
54406;SDS011;40313;50.308;30.374;2023-03-13T20:45:54;6.43;;;5.83;;
54406;SDS011;40313;50.308;30.374;2023-03-13T20:48:21;6.40;;;5.80;;
54406;SDS011;40313;50.308;30.374;2023-03-13T20:50:52;7.80;;;5.70;;
54406;SDS011;40313;50.308;30.374;2023-03-13T20:58:13;6.00;;;5.40;;
54406;SDS011;40313;50.308;30.374;2023-03-13T21:00:40;10.60;;;6.00;;
54406;SDS011;40313;50.308;30.374;2023-03-13T21:03:07;7.35;;;5.85;;
54406;SDS011;40313;50.308;30.374;2023-03-13T21:05:36;6.85;;;6.22;;
54406;SDS011;40313;50.308;30.374;2023-03-13T21:08:04;6.90;;;6.20;;
54406;SDS011;40313;50.308;30.374;2023-03-13T21:10:33;6.60;;;5.72;;
54406;SDS011;40313;50.308;30.374;2023-03-13T21:13:00;5.82;;;5.10;;
54406;SDS011;40313;50.308;30.374;2023-03-13T21:15:26;19.45;;;5.70;;
54406;SDS011;40313;50.308;30.374;2023-03-13T21:17:53;6.07;;;5.57;;
54406;SDS011;40313;50.308;30.374;2023-03-13T21:20:20;5.18;;;4.80;;
54406;SDS011;40313;50.308;30.374;2023-03-13T21:22:47;7.35;;;5.50;;
54406;SDS011;40313;50.308;30.374;2023-03-13T21:25:15;5.75;;;4.93;;
54406;SDS011;40313;50.308;30.374;2023-03-13T21:27:43;4.88;;;4.47;;
54406;SDS011;40313;50.308;30.374;2023-03-13T21:30:10;15.30;;;6.07;;
54406;SDS011;40313;50.308;30.374;2023-03-13T21:32:39;5.35;;;4.93;;
54406;SDS011;40313;50.308;30.374;2023-03-13T21:35:06;5.20;;;4.32;;
54406;SDS011;40313;50.308;30.374;2023-03-13T21:37:34;5.18;;;4.78;;
54406;SDS011;40313;50.308;30.374;2023-03-13T21:40:02;8.88;;;5.32;;
54406;SDS011;40313;50.308;30.374;2023-03-13T21:42:31;5.47;;;5.00;;
54406;SDS011;40313;50.308;30.374;2023-03-13T21:45:00;4.45;;;4.18;;
54406;SDS011;40313;50.308;30.374;2023-03-13T21:47:26;13.60;;;6.07;;
54406;SDS011;40313;50.308;30.374;2023-03-13T21:49:55;5.22;;;4.72;;
54406;SDS011;40313;50.308;30.374;2023-03-13T21:52:24;11.82;;;5.85;;
54406;SDS011;40313;50.308;30.374;2023-03-13T21:54:51;9.43;;;5.07;;
54406;SDS011;40313;50.308;30.374;2023-03-13T21:57:17;7.70;;;5.32;;
54406;SDS011;40313;50.308;30.374;2023-03-13T21:59:45;6.22;;;5.63;;
54406;SDS011;40313;50.308;30.374;2023-03-13T22:02:12;6.47;;;5.97;;
54406;SDS011;40313;50.308;30.374;2023-03-13T22:04:39;15.70;;;5.07;;
54406;SDS011;40313;50.308;30.374;2023-03-13T22:07:05;5.63;;;5.10;;
54406;SDS011;40313;50.308;30.374;2023-03-13T22:09:32;5.03;;;4.63;;
54406;SDS011;40313;50.308;30.374;2023-03-13T22:11:59;5.18;;;4.72;;
